sensor_id;sensor_type;location;lat;lon;timestamp;P1;durP1;ratioP1;P2;durP2;ratioP2
68168;SDS011;54981;50.206;15.978;2023-05-10T00:00:25;13.63;;;12.52;;
68168;SDS011;54981;50.206;15.978;2023-05-10T00:02:56;14.20;;;12.88;;
68168;SDS011;54981;50.206;15.978;2023-05-10T00:05:26;14.25;;;13.15;;
68168;SDS011;54981;50.206;15.978;2023-05-10T00:07:57;14.57;;;13.40;;
68168;SDS011;54981;50.206;15.978;2023-05-10T00:10:27;13.90;;;12.70;;
68168;SDS011;54981;50.206;15.978;2023-05-10T00:12:57;14.75;;;13.63;;
68168;SDS011;54981;50.206;15.978;2023-05-10T00:15:28;13.98;;;12.63;;
68168;SDS011;54981;50.206;15.978;2023-05-10T00:18:00;12.00;;;11.02;;
68168;SDS011;54981;50.206;15.978;2023-05-10T00:20:30;12.20;;;11.10;;
68168;SDS011;54981;50.206;15.978;2023-05-10T00:23:01;12.20;;;11.30;;
68168;SDS011;54981;50.206;15.978;2023-05-10T00:25:31;12.35;;;11.25;;
68168;SDS011;54981;50.206;15.978;2023-05-10T00:28:01;10.77;;;9.98;;
68168;SDS011;54981;50.206;15.978;2023-05-10T00:30:32;10.60;;;9.75;;
68168;SDS011;54981;50.206;15.978;2023-05-10T00:33:02;10.90;;;10.10;;
68168;SDS011;54981;50.206;15.978;2023-05-10T00:35:32;11.00;;;10.15;;
68168;SDS011;54981;50.206;15.978;2023-05-10T00:38:03;9.82;;;9.13;;
68168;SDS011;54981;50.206;15.978;2023-05-10T00:40:35;9.07;;;8.38;;
68168;SDS011;54981;50.206;15.978;2023-05-10T00:43:06;10.90;;;9.98;;
68168;SDS011;54981;50.206;15.978;2023-05-10T00:45:37;10.52;;;9.82;;
68168;SDS011;54981;50.206;15.978;2023-05-10T00:48:08;10.10;;;9.30;;
68168;SDS011;54981;50.206;15.978;2023-05-10T00:50:39;9.38;;;8.55;;
68168;SDS011;54981;50.206;15.978;2023-05-10T00:53:10;9.32;;;8.52;;
68168;SDS011;54981;50.206;15.978;2023-05-10T00:55:40;9.73;;;8.98;;
68168;SDS011;54981;50.206;15.978;2023-05-10T00:58:11;9.52;;;8.75;;
68168;SDS011;54981;50.206;15.978;2023-05-10T01:00:42;9.88;;;9.07;;
68168;SDS011;54981;50.206;15.978;2023-05-10T01:03:13;8.73;;;8.00;;
68168;SDS011;54981;50.206;15.978;2023-05-10T01:05:44;9.68;;;8.90;;
68168;SDS011;54981;50.206;15.978;2023-05-10T01:08:14;9.80;;;8.93;;
68168;SDS011;54981;50.206;15.978;2023-05-10T01:10:45;9.95;;;8.68;;
68168;SDS011;54981;50.206;15.978;2023-05-10T01:13:29;10.57;;;9.65;;
68168;SDS011;54981;50.206;15.978;2023-05-10T01:16:06;10.35;;;9.45;;
68168;SDS011;54981;50.206;15.978;2023-05-10T01:18:38;9.57;;;8.88;;
68168;SDS011;54981;50.206;15.978;2023-05-10T01:35:02;9.13;;;8.43;;
68168;SDS011;54981;50.206;15.978;2023-05-10T01:40:39;10.02;;;9.02;;
68168;SDS011;54981;50.206;15.978;2023-05-10T01:43:19;9.90;;;9.15;;
68168;SDS011;54981;50.206;15.978;2023-05-10T01:45:59;9.57;;;8.82;;
68168;SDS011;54981;50.206;15.978;2023-05-10T01:48:41;9.73;;;8.98;;
68168;SDS011;54981;50.206;15.978;2023-05-10T01:51:26;9.85;;;9.02;;
68168;SDS011;54981;50.206;15.978;2023-05-10T01:54:01;8.68;;;7.97;;
68168;SDS011;54981;50.206;15.978;2023-05-10T01:56:33;9.50;;;8.70;;
68168;SDS011;54981;50.206;15.978;2023-05-10T01:59:06;9.07;;;8.27;;
68168;SDS011;54981;50.206;15.978;2023-05-10T02:01:45;11.23;;;10.20;;
68168;SDS011;54981;50.206;15.978;2023-05-10T02:04:17;8.88;;;8.07;;
68168;SDS011;54981;50.206;15.978;2023-05-10T02:06:50;9.23;;;8.43;;
68168;SDS011;54981;50.206;15.978;2023-05-10T02:09:23;8.93;;;8.23;;
68168;SDS011;54981;50.206;15.978;2023-05-10T02:11:55;9.73;;;8.93;;
68168;SDS011;54981;50.206;15.978;2023-05-10T02:14:30;10.23;;;9.43;;
68168;SDS011;54981;50.206;15.978;2023-05-10T02:17:05;10.07;;;9.18;;
68168;SDS011;54981;50.206;15.978;2023-05-10T02:19:39;9.30;;;8.40;;
68168;SDS011;54981;50.206;15.978;2023-05-10T02:24:42;9.43;;;8.50;;
68168;SDS011;54981;50.206;15.978;2023-05-10T02:27:14;10.15;;;9.35;;
68168;SDS011;54981;50.206;15.978;2023-05-10T02:29:47;10.43;;;9.52;;
68168;SDS011;54981;50.206;15.978;2023-05-10T02:32:19;10.77;;;9.88;;
68168;SDS011;54981;50.206;15.978;2023-05-10T02:34:52;10.33;;;9.53;;
68168;SDS011;54981;50.206;15.978;2023-05-10T02:37:24;10.35;;;9.55;;
68168;SDS011;54981;50.206;15.978;2023-05-10T02:39:55;9.68;;;8.70;;
68168;SDS011;54981;50.206;15.978;2023-05-10T02:42:27;9.25;;;8.45;;
68168;SDS011;54981;50.206;15.978;2023-05-10T02:45:01;10.10;;;9.30;;
68168;SDS011;54981;50.206;15.978;2023-05-10T02:47:35;10.77;;;9.88;;
68168;SDS011;54981;50.206;15.978;2023-05-10T02:50:05;9.93;;;9.13;;
68168;SDS011;54981;50.206;15.978;2023-05-10T02:52:42;9.55;;;8.63;;
68168;SDS011;54981;50.206;15.978;2023-05-10T02:55:16;10.38;;;9.38;;
68168;SDS011;54981;50.206;15.978;2023-05-10T03:00:30;10.40;;;9.60;;
68168;SDS011;54981;50.206;15.978;2023-05-10T03:03:01;11.57;;;10.43;;
68168;SDS011;54981;50.206;15.978;2023-05-10T03:05:32;9.32;;;8.63;;
68168;SDS011;54981;50.206;15.978;2023-05-10T03:08:03;9.65;;;8.85;;
68168;SDS011;54981;50.206;15.978;2023-05-10T03:10:38;10.27;;;9.38;;
68168;SDS011;54981;50.206;15.978;2023-05-10T03:16:06;11.32;;;10.32;;
68168;SDS011;54981;50.206;15.978;2023-05-10T03:21:17;10.65;;;9.85;;
68168;SDS011;54981;50.206;15.978;2023-05-10T03:24:07;10.85;;;9.77;;
68168;SDS011;54981;50.206;15.978;2023-05-10T03:26:42;11.38;;;10.38;;
68168;SDS011;54981;50.206;15.978;2023-05-10T03:29:14;10.15;;;9.25;;
68168;SDS011;54981;50.206;15.978;2023-05-10T03:31:45;9.80;;;8.80;;
68168;SDS011;54981;50.206;15.978;2023-05-10T03:34:22;10.82;;;9.85;;
68168;SDS011;54981;50.206;15.978;2023-05-10T03:36:53;10.82;;;9.75;;
68168;SDS011;54981;50.206;15.978;2023-05-10T03:39:23;11.82;;;10.93;;
68168;SDS011;54981;50.206;15.978;2023-05-10T03:41:54;11.27;;;10.27;;
68168;SDS011;54981;50.206;15.978;2023-05-10T03:44:25;10.70;;;9.70;;
68168;SDS011;54981;50.206;15.978;2023-05-10T03:46:55;12.18;;;11.18;;
68168;SDS011;54981;50.206;15.978;2023-05-10T03:49:26;12.13;;;11.15;;
68168;SDS011;54981;50.206;15.978;2023-05-10T03:51:57;11.23;;;10.23;;
68168;SDS011;54981;50.206;15.978;2023-05-10T03:54:27;11.77;;;10.68;;
68168;SDS011;54981;50.206;15.978;2023-05-10T03:56:57;10.88;;;10.05;;
68168;SDS011;54981;50.206;15.978;2023-05-10T03:59:28;11.70;;;10.80;;
68168;SDS011;54981;50.206;15.978;2023-05-10T04:01:58;11.10;;;10.13;;
68168;SDS011;54981;50.206;15.978;2023-05-10T04:04:29;11.65;;;10.65;;
68168;SDS011;54981;50.206;15.978;2023-05-10T04:06:59;21.70;;;16.73;;
68168;SDS011;54981;50.206;15.978;2023-05-10T04:09:29;19.02;;;16.88;;
68168;SDS011;54981;50.206;15.978;2023-05-10T04:12:00;14.65;;;13.27;;
68168;SDS011;54981;50.206;15.978;2023-05-10T04:14:32;17.02;;;15.32;;
68168;SDS011;54981;50.206;15.978;2023-05-10T04:17:02;17.00;;;14.40;;
68168;SDS011;54981;50.206;15.978;2023-05-10T04:19:32;15.40;;;13.90;;
68168;SDS011;54981;50.206;15.978;2023-05-10T04:22:03;16.73;;;15.13;;
68168;SDS011;54981;50.206;15.978;2023-05-10T04:24:33;13.55;;;12.30;;
68168;SDS011;54981;50.206;15.978;2023-05-10T04:27:04;14.85;;;13.35;;
68168;SDS011;54981;50.206;15.978;2023-05-10T04:29:34;13.27;;;12.18;;
68168;SDS011;54981;50.206;15.978;2023-05-10T04:32:05;11.35;;;10.32;;
68168;SDS011;54981;50.206;15.978;2023-05-10T04:34:35;11.02;;;9.95;;
68168;SDS011;54981;50.206;15.978;2023-05-10T04:37:06;11.70;;;10.50;;
68168;SDS011;54981;50.206;15.978;2023-05-10T04:39:37;9.85;;;9.05;;
68168;SDS011;54981;50.206;15.978;2023-05-10T04:42:08;10.70;;;9.77;;
68168;SDS011;54981;50.206;15.978;2023-05-10T04:44:38;10.02;;;9.18;;
68168;SDS011;54981;50.206;15.978;2023-05-10T04:47:09;10.95;;;10.05;;
68168;SDS011;54981;50.206;15.978;2023-05-10T04:49:39;12.70;;;9.43;;
68168;SDS011;54981;50.206;15.978;2023-05-10T04:52:09;9.52;;;8.65;;
68168;SDS011;54981;50.206;15.978;2023-05-10T04:54:40;10.25;;;9.35;;
68168;SDS011;54981;50.206;15.978;2023-05-10T04:57:10;10.05;;;9.05;;
68168;SDS011;54981;50.206;15.978;2023-05-10T04:59:40;8.82;;;8.02;;
68168;SDS011;54981;50.206;15.978;2023-05-10T05:02:11;9.73;;;8.68;;
68168;SDS011;54981;50.206;15.978;2023-05-10T05:04:41;9.82;;;8.32;;
68168;SDS011;54981;50.206;15.978;2023-05-10T05:07:11;9.52;;;8.50;;
68168;SDS011;54981;50.206;15.978;2023-05-10T05:09:42;7.93;;;7.13;;
68168;SDS011;54981;50.206;15.978;2023-05-10T05:12:12;9.23;;;8.32;;
68168;SDS011;54981;50.206;15.978;2023-05-10T05:14:44;8.57;;;7.65;;
68168;SDS011;54981;50.206;15.978;2023-05-10T05:17:14;9.68;;;8.35;;
68168;SDS011;54981;50.206;15.978;2023-05-10T05:19:44;9.10;;;8.30;;
68168;SDS011;54981;50.206;15.978;2023-05-10T05:22:15;8.38;;;7.57;;
68168;SDS011;54981;50.206;15.978;2023-05-10T05:24:45;9.27;;;8.48;;
68168;SDS011;54981;50.206;15.978;2023-05-10T05:27:15;8.85;;;8.07;;
68168;SDS011;54981;50.206;15.978;2023-05-10T05:29:46;8.35;;;7.50;;
68168;SDS011;54981;50.206;15.978;2023-05-10T05:32:16;9.75;;;8.05;;
68168;SDS011;54981;50.206;15.978;2023-05-10T05:34:47;10.00;;;8.35;;
68168;SDS011;54981;50.206;15.978;2023-05-10T05:37:18;9.18;;;7.70;;
68168;SDS011;54981;50.206;15.978;2023-05-10T05:39:49;9.60;;;8.68;;
68168;SDS011;54981;50.206;15.978;2023-05-10T05:42:20;9.15;;;8.27;;
68168;SDS011;54981;50.206;15.978;2023-05-10T05:44:50;8.23;;;7.43;;
68168;SDS011;54981;50.206;15.978;2023-05-10T05:47:21;8.48;;;7.65;;
68168;SDS011;54981;50.206;15.978;2023-05-10T05:49:51;9.25;;;8.35;;
68168;SDS011;54981;50.206;15.978;2023-05-10T05:52:21;8.98;;;8.02;;
68168;SDS011;54981;50.206;15.978;2023-05-10T05:54:52;12.13;;;7.90;;
68168;SDS011;54981;50.206;15.978;2023-05-10T05:57:22;11.57;;;7.88;;
68168;SDS011;54981;50.206;15.978;2023-05-10T05:59:52;8.10;;;7.30;;
68168;SDS011;54981;50.206;15.978;2023-05-10T06:02:23;8.18;;;7.32;;
68168;SDS011;54981;50.206;15.978;2023-05-10T06:04:53;9.38;;;7.82;;
68168;SDS011;54981;50.206;15.978;2023-05-10T06:07:23;8.23;;;7.50;;
68168;SDS011;54981;50.206;15.978;2023-05-10T06:09:54;9.55;;;8.05;;
68168;SDS011;54981;50.206;15.978;2023-05-10T06:12:24;10.52;;;8.18;;
68168;SDS011;54981;50.206;15.978;2023-05-10T06:14:54;8.07;;;7.25;;
68168;SDS011;54981;50.206;15.978;2023-05-10T06:17:25;8.20;;;7.13;;
68168;SDS011;54981;50.206;15.978;2023-05-10T06:19:56;9.95;;;8.10;;
68168;SDS011;54981;50.206;15.978;2023-05-10T06:22:27;7.63;;;6.82;;
68168;SDS011;54981;50.206;15.978;2023-05-10T06:24:57;8.75;;;7.85;;
68168;SDS011;54981;50.206;15.978;2023-05-10T06:27:27;9.63;;;7.00;;
68168;SDS011;54981;50.206;15.978;2023-05-10T06:29:58;7.80;;;7.07;;
68168;SDS011;54981;50.206;15.978;2023-05-10T06:32:28;9.13;;;7.13;;
68168;SDS011;54981;50.206;15.978;2023-05-10T06:34:58;7.18;;;6.50;;
68168;SDS011;54981;50.206;15.978;2023-05-10T06:37:29;7.72;;;7.00;;
68168;SDS011;54981;50.206;15.978;2023-05-10T06:39:59;11.52;;;6.75;;
68168;SDS011;54981;50.206;15.978;2023-05-10T06:42:30;8.13;;;7.43;;
68168;SDS011;54981;50.206;15.978;2023-05-10T06:45:00;7.13;;;6.43;;
68168;SDS011;54981;50.206;15.978;2023-05-10T06:47:31;10.07;;;7.47;;
68168;SDS011;54981;50.206;15.978;2023-05-10T06:50:01;10.23;;;6.95;;
68168;SDS011;54981;50.206;15.978;2023-05-10T06:52:32;8.05;;;7.07;;
68168;SDS011;54981;50.206;15.978;2023-05-10T06:55:03;7.28;;;6.57;;
68168;SDS011;54981;50.206;15.978;2023-05-10T06:57:34;7.50;;;6.72;;
68168;SDS011;54981;50.206;15.978;2023-05-10T07:00:05;7.88;;;5.90;;
68168;SDS011;54981;50.206;15.978;2023-05-10T07:02:36;8.13;;;6.13;;
68168;SDS011;54981;50.206;15.978;2023-05-10T07:05:06;6.85;;;6.05;;
68168;SDS011;54981;50.206;15.978;2023-05-10T07:07:37;8.95;;;6.53;;
68168;SDS011;54981;50.206;15.978;2023-05-10T07:10:07;6.55;;;5.50;;
68168;SDS011;54981;50.206;15.978;2023-05-10T07:12:38;9.73;;;5.50;;
68168;SDS011;54981;50.206;15.978;2023-05-10T07:15:09;7.68;;;5.88;;
68168;SDS011;54981;50.206;15.978;2023-05-10T07:17:39;9.20;;;6.00;;
68168;SDS011;54981;50.206;15.978;2023-05-10T07:20:10;9.13;;;6.10;;
68168;SDS011;54981;50.206;15.978;2023-05-10T07:22:40;7.65;;;5.68;;
68168;SDS011;54981;50.206;15.978;2023-05-10T07:25:11;7.15;;;6.45;;
68168;SDS011;54981;50.206;15.978;2023-05-10T07:27:41;8.35;;;6.35;;
68168;SDS011;54981;50.206;15.978;2023-05-10T07:30:12;7.28;;;6.13;;
68168;SDS011;54981;50.206;15.978;2023-05-10T07:32:42;12.45;;;6.35;;
68168;SDS011;54981;50.206;15.978;2023-05-10T07:35:13;7.85;;;6.22;;
68168;SDS011;54981;50.206;15.978;2023-05-10T07:37:43;7.50;;;6.07;;
68168;SDS011;54981;50.206;15.978;2023-05-10T07:40:14;7.40;;;6.18;;
68168;SDS011;54981;50.206;15.978;2023-05-10T07:42:44;7.85;;;6.00;;
68168;SDS011;54981;50.206;15.978;2023-05-10T07:45:14;7.40;;;6.80;;
68168;SDS011;54981;50.206;15.978;2023-05-10T07:47:45;7.47;;;5.88;;
68168;SDS011;54981;50.206;15.978;2023-05-10T07:50:15;11.98;;;6.32;;
68168;SDS011;54981;50.206;15.978;2023-05-10T07:52:45;14.57;;;7.15;;
68168;SDS011;54981;50.206;15.978;2023-05-10T07:55:16;7.55;;;6.10;;
68168;SDS011;54981;50.206;15.978;2023-05-10T07:57:48;10.32;;;6.38;;
68168;SDS011;54981;50.206;15.978;2023-05-10T08:00:20;7.68;;;5.70;;
68168;SDS011;54981;50.206;15.978;2023-05-10T08:02:50;6.65;;;6.05;;
68168;SDS011;54981;50.206;15.978;2023-05-10T08:05:21;6.57;;;5.82;;
68168;SDS011;54981;50.206;15.978;2023-05-10T08:07:51;10.23;;;6.68;;
68168;SDS011;54981;50.206;15.978;2023-05-10T08:10:22;9.95;;;6.57;;
68168;SDS011;54981;50.206;15.978;2023-05-10T08:12:54;25.85;;;6.70;;
68168;SDS011;54981;50.206;15.978;2023-05-10T08:15:24;8.85;;;6.28;;
68168;SDS011;54981;50.206;15.978;2023-05-10T08:17:55;10.07;;;5.82;;
68168;SDS011;54981;50.206;15.978;2023-05-10T08:20:25;8.60;;;5.55;;
68168;SDS011;54981;50.206;15.978;2023-05-10T08:22:56;10.57;;;5.63;;
68168;SDS011;54981;50.206;15.978;2023-05-10T08:25:26;11.13;;;6.57;;
68168;SDS011;54981;50.206;15.978;2023-05-10T08:27:56;7.13;;;5.70;;
68168;SDS011;54981;50.206;15.978;2023-05-10T08:30:27;9.48;;;6.25;;
68168;SDS011;54981;50.206;15.978;2023-05-10T08:32:57;8.35;;;6.22;;
68168;SDS011;54981;50.206;15.978;2023-05-10T08:35:27;6.72;;;6.05;;
68168;SDS011;54981;50.206;15.978;2023-05-10T08:37:58;9.27;;;6.40;;
68168;SDS011;54981;50.206;15.978;2023-05-10T08:40:28;9.35;;;5.63;;
68168;SDS011;54981;50.206;15.978;2023-05-10T08:43:02;14.27;;;6.00;;
68168;SDS011;54981;50.206;15.978;2023-05-10T08:45:39;6.88;;;5.22;;
68168;SDS011;54981;50.206;15.978;2023-05-10T08:48:17;9.60;;;5.88;;
68168;SDS011;54981;50.206;15.978;2023-05-10T08:50:48;7.03;;;5.72;;
68168;SDS011;54981;50.206;15.978;2023-05-10T08:53:20;13.88;;;5.85;;
68168;SDS011;54981;50.206;15.978;2023-05-10T08:55:55;9.50;;;5.15;;
68168;SDS011;54981;50.206;15.978;2023-05-10T08:58:27;9.48;;;5.50;;
68168;SDS011;54981;50.206;15.978;2023-05-10T09:00:58;8.52;;;5.60;;
68168;SDS011;54981;50.206;15.978;2023-05-10T09:03:29;13.20;;;5.70;;
68168;SDS011;54981;50.206;15.978;2023-05-10T09:06:00;20.30;;;6.50;;
68168;SDS011;54981;50.206;15.978;2023-05-10T09:08:30;12.63;;;6.18;;
68168;SDS011;54981;50.206;15.978;2023-05-10T09:11:01;10.20;;;5.95;;
68168;SDS011;54981;50.206;15.978;2023-05-10T09:13:32;13.70;;;5.82;;
68168;SDS011;54981;50.206;15.978;2023-05-10T09:16:03;15.50;;;6.22;;
68168;SDS011;54981;50.206;15.978;2023-05-10T09:18:34;12.70;;;6.38;;
68168;SDS011;54981;50.206;15.978;2023-05-10T09:21:05;11.32;;;5.78;;
68168;SDS011;54981;50.206;15.978;2023-05-10T09:23:35;9.75;;;5.70;;
68168;SDS011;54981;50.206;15.978;2023-05-10T09:26:07;12.20;;;5.88;;
68168;SDS011;54981;50.206;15.978;2023-05-10T09:28:53;9.10;;;4.95;;
68168;SDS011;54981;50.206;15.978;2023-05-10T09:31:44;10.05;;;5.03;;
68168;SDS011;54981;50.206;15.978;2023-05-10T09:34:17;6.47;;;5.18;;
68168;SDS011;54981;50.206;15.978;2023-05-10T09:36:50;7.63;;;4.53;;
68168;SDS011;54981;50.206;15.978;2023-05-10T09:39:31;9.18;;;5.32;;
68168;SDS011;54981;50.206;15.978;2023-05-10T09:42:03;6.70;;;4.57;;
68168;SDS011;54981;50.206;15.978;2023-05-10T09:44:35;6.13;;;4.68;;
68168;SDS011;54981;50.206;15.978;2023-05-10T09:47:11;12.00;;;6.10;;
68168;SDS011;54981;50.206;15.978;2023-05-10T09:49:50;6.50;;;5.18;;
68168;SDS011;54981;50.206;15.978;2023-05-10T09:52:27;7.65;;;5.50;;
68168;SDS011;54981;50.206;15.978;2023-05-10T09:54:58;7.32;;;5.30;;
68168;SDS011;54981;50.206;15.978;2023-05-10T09:57:30;12.65;;;5.55;;
68168;SDS011;54981;50.206;15.978;2023-05-10T10:00:00;11.95;;;5.03;;
68168;SDS011;54981;50.206;15.978;2023-05-10T10:02:31;8.27;;;5.28;;
68168;SDS011;54981;50.206;15.978;2023-05-10T10:05:02;9.32;;;4.90;;
68168;SDS011;54981;50.206;15.978;2023-05-10T10:07:33;6.30;;;5.40;;
68168;SDS011;54981;50.206;15.978;2023-05-10T10:10:05;9.43;;;5.03;;
68168;SDS011;54981;50.206;15.978;2023-05-10T10:12:41;8.68;;;6.03;;
68168;SDS011;54981;50.206;15.978;2023-05-10T10:15:11;9.98;;;5.35;;
68168;SDS011;54981;50.206;15.978;2023-05-10T10:17:42;10.43;;;5.30;;
68168;SDS011;54981;50.206;15.978;2023-05-10T10:20:14;5.40;;;4.63;;
68168;SDS011;54981;50.206;15.978;2023-05-10T10:22:45;8.65;;;4.53;;
68168;SDS011;54981;50.206;15.978;2023-05-10T10:25:16;5.30;;;4.72;;
68168;SDS011;54981;50.206;15.978;2023-05-10T10:30:35;5.90;;;5.30;;
68168;SDS011;54981;50.206;15.978;2023-05-10T10:35:54;8.07;;;4.40;;
68168;SDS011;54981;50.206;15.978;2023-05-10T10:38:41;10.20;;;4.82;;
68168;SDS011;54981;50.206;15.978;2023-05-10T10:41:30;5.53;;;4.28;;
68168;SDS011;54981;50.206;15.978;2023-05-10T10:46:59;6.43;;;4.13;;
68168;SDS011;54981;50.206;15.978;2023-05-10T10:49:31;6.55;;;3.63;;
68168;SDS011;54981;50.206;15.978;2023-05-10T10:52:23;6.28;;;4.00;;
68168;SDS011;54981;50.206;15.978;2023-05-10T11:00:30;6.13;;;3.95;;
68168;SDS011;54981;50.206;15.978;2023-05-10T11:03:06;8.65;;;4.03;;
68168;SDS011;54981;50.206;15.978;2023-05-10T11:05:45;7.45;;;3.88;;
68168;SDS011;54981;50.206;15.978;2023-05-10T11:16:11;6.55;;;4.25;;
68168;SDS011;54981;50.206;15.978;2023-05-10T11:21:34;4.82;;;4.30;;
68168;SDS011;54981;50.206;15.978;2023-05-10T11:24:16;5.20;;;4.40;;
68168;SDS011;54981;50.206;15.978;2023-05-10T11:26:50;4.80;;;4.32;;
68168;SDS011;54981;50.206;15.978;2023-05-10T11:29:21;5.65;;;3.97;;
68168;SDS011;54981;50.206;15.978;2023-05-10T11:31:52;10.35;;;4.38;;
68168;SDS011;54981;50.206;15.978;2023-05-10T11:34:32;4.97;;;4.18;;
68168;SDS011;54981;50.206;15.978;2023-05-10T11:37:05;7.85;;;4.43;;
68168;SDS011;54981;50.206;15.978;2023-05-10T11:39:35;8.95;;;3.92;;
68168;SDS011;54981;50.206;15.978;2023-05-10T11:42:05;5.38;;;4.40;;
68168;SDS011;54981;50.206;15.978;2023-05-10T11:44:39;4.75;;;4.20;;
68168;SDS011;54981;50.206;15.978;2023-05-10T11:47:10;6.30;;;3.88;;
68168;SDS011;54981;50.206;15.978;2023-05-10T11:49:44;5.68;;;3.47;;
68168;SDS011;54981;50.206;15.978;2023-05-10T11:52:16;4.68;;;4.10;;
68168;SDS011;54981;50.206;15.978;2023-05-10T11:54:55;4.63;;;4.22;;
68168;SDS011;54981;50.206;15.978;2023-05-10T11:57:26;5.53;;;4.20;;
68168;SDS011;54981;50.206;15.978;2023-05-10T11:59:57;11.38;;;4.40;;
68168;SDS011;54981;50.206;15.978;2023-05-10T12:02:28;4.43;;;4.00;;
68168;SDS011;54981;50.206;15.978;2023-05-10T12:04:59;6.60;;;4.35;;
68168;SDS011;54981;50.206;15.978;2023-05-10T12:07:30;4.55;;;4.15;;
68168;SDS011;54981;50.206;15.978;2023-05-10T12:10:07;4.30;;;3.47;;
68168;SDS011;54981;50.206;15.978;2023-05-10T12:12:43;5.47;;;4.15;;
68168;SDS011;54981;50.206;15.978;2023-05-10T12:15:18;5.95;;;4.18;;
68168;SDS011;54981;50.206;15.978;2023-05-10T12:17:50;9.82;;;4.45;;
68168;SDS011;54981;50.206;15.978;2023-05-10T12:20:22;7.63;;;4.18;;
68168;SDS011;54981;50.206;15.978;2023-05-10T12:22:54;4.93;;;4.05;;
68168;SDS011;54981;50.206;15.978;2023-05-10T12:25:30;5.28;;;4.32;;
68168;SDS011;54981;50.206;15.978;2023-05-10T12:28:05;4.95;;;4.43;;
68168;SDS011;54981;50.206;15.978;2023-05-10T12:30:37;4.25;;;3.75;;
68168;SDS011;54981;50.206;15.978;2023-05-10T12:33:09;8.00;;;3.95;;
68168;SDS011;54981;50.206;15.978;2023-05-10T12:35:51;8.50;;;4.27;;
68168;SDS011;54981;50.206;15.978;2023-05-10T12:38:26;5.25;;;3.72;;
68168;SDS011;54981;50.206;15.978;2023-05-10T12:41:06;4.55;;;4.10;;
68168;SDS011;54981;50.206;15.978;2023-05-10T12:43:37;5.93;;;3.88;;
68168;SDS011;54981;50.206;15.978;2023-05-10T12:46:12;5.13;;;4.03;;
68168;SDS011;54981;50.206;15.978;2023-05-10T12:48:44;5.22;;;3.55;;
68168;SDS011;54981;50.206;15.978;2023-05-10T12:51:24;4.82;;;3.60;;
68168;SDS011;54981;50.206;15.978;2023-05-10T12:53:55;5.55;;;3.75;;
68168;SDS011;54981;50.206;15.978;2023-05-10T12:56:25;4.38;;;3.50;;
68168;SDS011;54981;50.206;15.978;2023-05-10T12:58:56;4.90;;;4.13;;
68168;SDS011;54981;50.206;15.978;2023-05-10T13:01:26;4.70;;;3.92;;
68168;SDS011;54981;50.206;15.978;2023-05-10T13:03:56;5.65;;;4.15;;
68168;SDS011;54981;50.206;15.978;2023-05-10T13:06:27;9.63;;;4.43;;
68168;SDS011;54981;50.206;15.978;2023-05-10T13:08:57;6.20;;;3.20;;
68168;SDS011;54981;50.206;15.978;2023-05-10T13:11:27;8.88;;;3.88;;
68168;SDS011;54981;50.206;15.978;2023-05-10T13:13:58;4.78;;;3.85;;
68168;SDS011;54981;50.206;15.978;2023-05-10T13:16:28;4.82;;;3.50;;
68168;SDS011;54981;50.206;15.978;2023-05-10T13:18:59;4.53;;;4.13;;
68168;SDS011;54981;50.206;15.978;2023-05-10T13:21:29;4.50;;;3.70;;
68168;SDS011;54981;50.206;15.978;2023-05-10T13:24:00;5.93;;;4.05;;
68168;SDS011;54981;50.206;15.978;2023-05-10T13:26:31;4.10;;;3.70;;
68168;SDS011;54981;50.206;15.978;2023-05-10T13:29:02;4.38;;;3.97;;
68168;SDS011;54981;50.206;15.978;2023-05-10T13:31:33;5.05;;;4.45;;
68168;SDS011;54981;50.206;15.978;2023-05-10T13:34:04;4.38;;;3.90;;
68168;SDS011;54981;50.206;15.978;2023-05-10T13:36:35;8.40;;;4.25;;
68168;SDS011;54981;50.206;15.978;2023-05-10T13:39:05;6.13;;;3.67;;
68168;SDS011;54981;50.206;15.978;2023-05-10T13:41:36;5.15;;;3.65;;
68168;SDS011;54981;50.206;15.978;2023-05-10T13:44:07;3.55;;;3.25;;
68168;SDS011;54981;50.206;15.978;2023-05-10T13:46:37;5.13;;;3.40;;
68168;SDS011;54981;50.206;15.978;2023-05-10T13:49:08;4.43;;;3.60;;
68168;SDS011;54981;50.206;15.978;2023-05-10T13:51:39;3.70;;;3.38;;
68168;SDS011;54981;50.206;15.978;2023-05-10T13:54:09;4.82;;;3.55;;
68168;SDS011;54981;50.206;15.978;2023-05-10T13:56:41;4.93;;;3.75;;
68168;SDS011;54981;50.206;15.978;2023-05-10T13:59:12;5.30;;;3.45;;
68168;SDS011;54981;50.206;15.978;2023-05-10T14:01:43;5.60;;;3.42;;
68168;SDS011;54981;50.206;15.978;2023-05-10T14:04:14;4.40;;;3.00;;
68168;SDS011;54981;50.206;15.978;2023-05-10T14:06:44;4.50;;;3.33;;
68168;SDS011;54981;50.206;15.978;2023-05-10T14:09:15;4.25;;;3.00;;
68168;SDS011;54981;50.206;15.978;2023-05-10T14:11:45;7.28;;;3.55;;
68168;SDS011;54981;50.206;15.978;2023-05-10T14:14:16;4.22;;;3.80;;
68168;SDS011;54981;50.206;15.978;2023-05-10T14:16:46;4.55;;;3.78;;
68168;SDS011;54981;50.206;15.978;2023-05-10T14:19:17;4.90;;;3.00;;
68168;SDS011;54981;50.206;15.978;2023-05-10T14:21:47;6.65;;;3.33;;
68168;SDS011;54981;50.206;15.978;2023-05-10T14:24:17;7.13;;;3.33;;
68168;SDS011;54981;50.206;15.978;2023-05-10T14:26:48;4.18;;;3.50;;
68168;SDS011;54981;50.206;15.978;2023-05-10T14:29:18;7.95;;;3.58;;
68168;SDS011;54981;50.206;15.978;2023-05-10T14:31:49;4.32;;;3.35;;
68168;SDS011;54981;50.206;15.978;2023-05-10T14:34:19;7.07;;;3.22;;
68168;SDS011;54981;50.206;15.978;2023-05-10T14:36:50;5.25;;;3.47;;
68168;SDS011;54981;50.206;15.978;2023-05-10T14:39:20;6.88;;;3.72;;
68168;SDS011;54981;50.206;15.978;2023-05-10T14:41:51;8.32;;;3.70;;
68168;SDS011;54981;50.206;15.978;2023-05-10T14:44:22;7.40;;;4.20;;
68168;SDS011;54981;50.206;15.978;2023-05-10T14:46:52;5.70;;;3.97;;
68168;SDS011;54981;50.206;15.978;2023-05-10T14:49:23;6.95;;;3.67;;
68168;SDS011;54981;50.206;15.978;2023-05-10T14:51:55;8.95;;;3.88;;
68168;SDS011;54981;50.206;15.978;2023-05-10T14:54:25;4.60;;;3.65;;
68168;SDS011;54981;50.206;15.978;2023-05-10T14:56:56;6.13;;;3.83;;
68168;SDS011;54981;50.206;15.978;2023-05-10T14:59:26;3.85;;;3.35;;
68168;SDS011;54981;50.206;15.978;2023-05-10T15:01:56;5.03;;;3.92;;
68168;SDS011;54981;50.206;15.978;2023-05-10T15:04:27;5.60;;;3.50;;
68168;SDS011;54981;50.206;15.978;2023-05-10T15:07:00;4.85;;;4.10;;
68168;SDS011;54981;50.206;15.978;2023-05-10T15:09:31;5.63;;;3.83;;
68168;SDS011;54981;50.206;15.978;2023-05-10T15:12:01;4.30;;;3.90;;
68168;SDS011;54981;50.206;15.978;2023-05-10T15:14:32;9.27;;;4.10;;
68168;SDS011;54981;50.206;15.978;2023-05-10T15:17:03;6.10;;;3.88;;
68168;SDS011;54981;50.206;15.978;2023-05-10T15:19:33;8.15;;;4.25;;
68168;SDS011;54981;50.206;15.978;2023-05-10T15:22:04;5.47;;;3.60;;
68168;SDS011;54981;50.206;15.978;2023-05-10T15:24:35;6.72;;;4.00;;
68168;SDS011;54981;50.206;15.978;2023-05-10T15:27:05;7.97;;;3.90;;
68168;SDS011;54981;50.206;15.978;2023-05-10T15:29:36;7.65;;;4.07;;
68168;SDS011;54981;50.206;15.978;2023-05-10T15:32:06;4.88;;;4.20;;
68168;SDS011;54981;50.206;15.978;2023-05-10T15:34:37;4.47;;;3.83;;
68168;SDS011;54981;50.206;15.978;2023-05-10T15:37:07;5.68;;;4.13;;
68168;SDS011;54981;50.206;15.978;2023-05-10T15:39:37;7.63;;;4.63;;
68168;SDS011;54981;50.206;15.978;2023-05-10T15:42:08;5.30;;;4.57;;
68168;SDS011;54981;50.206;15.978;2023-05-10T15:44:38;5.88;;;4.38;;
68168;SDS011;54981;50.206;15.978;2023-05-10T15:47:09;8.38;;;5.30;;